Seaton, United Kingdom
Current Conditions -  °F | °C
As of 7:20 AM on Sunday 26 Oct 2014 (Local Time) from EGTE Reporting Station
Broken Clouds Broken Clouds  
Wind Chill: 55°   Ceiling: 2800
Heat Index: 55°   Visibility: 6mi
Dew Point: 46°   Wind: 7mph
Humidity: 72%   Direction: 190°S
Pressure: 30.12"   Gusts: NA
Location:  50.71°N, 3.07°W
Report Text: EGTE 260620Z 19006KT 9999 BKN028 13/08 Q1020
Loading
Personal Weather Stations






























Interactive Weather Map
Tropical Storm Tracking
New forecast layout! Learn more

10-Day Weather Forecast

Advertisements
Track Severe Weather on mobile